Time;durP1;ratioP1;P1;durP2;ratioP2;P2;SDS_P1;SDS_P2;PMS_P1;PMS_P2;Temp;Humidity;BMP_temperature;BMP_pressure;BME280_temperature;BME280_humidity;BME280_pressure;Samples;Min_cycle;Max_cycle;Signal;HPM_P1;HPM_P2
2022/04/24 00:02:15;;;;;;;22.50;9.90;;;9.60;99.90;;;;;;5023249;28;20383;-78
2022/04/24 00:04:41;;;;;;;21.33;9.25;;;9.60;99.90;;;;;;5021215;28;20052;-77
2022/04/24 00:07:09;;;;;;;21.45;9.98;;;9.60;99.90;;;;;;5037781;28;20032;-78
2022/04/24 00:09:37;;;;;;;19.08;8.65;;;9.50;99.90;;;;;;5023657;28;20372;-79
2022/04/24 00:12:04;;;;;;;20.38;10.23;;;9.50;99.90;;;;;;5041462;28;20044;-76
2022/04/24 00:14:29;;;;;;;19.73;10.02;;;9.40;99.90;;;;;;5042237;28;20025;-77
2022/04/24 00:16:55;;;;;;;23.27;10.93;;;9.40;99.90;;;;;;5041140;28;20060;-76
2022/04/24 00:19:21;;;;;;;26.45;12.63;;;9.40;99.90;;;;;;5047062;28;20022;-79
2022/04/24 00:21:46;;;;;;;27.15;10.70;;;9.40;99.90;;;;;;5024959;28;20033;-78
2022/04/24 00:24:13;;;;;;;22.30;10.32;;;9.40;99.90;;;;;;5041677;28;20105;-78
2022/04/24 00:26:39;;;;;;;24.65;11.38;;;9.40;99.90;;;;;;5028903;28;20034;-77
2022/04/24 00:29:05;;;;;;;20.50;10.73;;;9.40;99.90;;;;;;5040238;28;20103;-77
2022/04/24 00:31:30;;;;;;;29.17;11.65;;;9.40;99.90;;;;;;5023689;28;20029;-77
2022/04/24 00:33:56;;;;;;;22.90;11.52;;;9.30;99.90;;;;;;5026024;28;20029;-77
2022/04/24 00:36:21;;;;;;;23.23;11.38;;;9.30;99.90;;;;;;5039768;28;20025;-76
2022/04/24 00:38:47;;;;;;;23.77;11.82;;;9.30;99.90;;;;;;5024189;28;20048;-76
2022/04/24 00:41:12;;;;;;;24.85;12.18;;;9.30;99.90;;;;;;5043261;28;20096;-77
2022/04/24 00:43:38;;;;;;;21.85;12.60;;;9.20;99.90;;;;;;5023647;28;20573;-77
2022/04/24 00:46:40;;;;;;;24.67;12.05;;;9.20;99.90;;;;;;5043005;28;20081;-79
2022/04/24 00:49:07;;;;;;;23.45;12.50;;;9.20;99.90;;;;;;5042440;28;20040;-77
2022/04/24 00:51:33;;;;;;;25.95;12.02;;;9.10;99.90;;;;;;5045293;28;20122;-76
2022/04/24 00:54:00;;;;;;;23.63;12.60;;;9.10;99.90;;;;;;5039547;28;20483;-77
2022/04/24 00:56:31;;;;;;;29.88;13.40;;;9.10;99.90;;;;;;5044883;28;20482;-77
2022/04/24 00:58:58;;;;;;;25.20;12.30;;;9.10;99.90;;;;;;5036948;28;20025;-78
2022/04/24 01:01:24;;;;;;;23.60;12.00;;;9.10;99.90;;;;;;5036195;28;20081;-77
2022/04/24 01:03:50;;;;;;;23.45;11.60;;;9.00;99.90;;;;;;5036110;28;20114;-77
2022/04/24 01:06:15;;;;;;;31.33;11.50;;;9.10;99.90;;;;;;5017533;28;20022;-78
2022/04/24 01:08:41;;;;;;;22.42;11.05;;;9.10;99.90;;;;;;5036162;28;20530;-79
2022/04/24 01:11:06;;;;;;;24.05;10.52;;;9.00;99.90;;;;;;5036475;28;20479;-78
2022/04/24 01:13:32;;;;;;;18.60;10.15;;;9.00;99.90;;;;;;5035138;28;20123;-77
2022/04/24 01:15:57;;;;;;;23.45;11.02;;;9.00;99.90;;;;;;5017333;28;20033;-76
2022/04/24 01:18:25;;;;;;;22.70;10.55;;;9.00;99.90;;;;;;5019706;28;20040;-77
2022/04/24 01:20:50;;;;;;;19.98;10.25;;;8.90;99.90;;;;;;5038662;28;20498;-78
2022/04/24 01:23:16;;;;;;;25.02;9.70;;;8.90;99.90;;;;;;5038183;28;20037;-77
2022/04/24 01:25:41;;;;;;;17.45;9.07;;;8.80;99.90;;;;;;5033870;28;20034;-76
2022/04/24 01:28:10;;;;;;;16.33;9.00;;;8.80;99.90;;;;;;5034248;28;20036;-78
2022/04/24 01:30:36;;;;;;;14.55;8.25;;;8.80;99.90;;;;;;5034913;28;20512;-77
2022/04/24 01:33:03;;;;;;;22.48;9.50;;;8.80;99.90;;;;;;5033400;28;20059;-77
2022/04/24 01:35:29;;;;;;;15.90;8.85;;;8.80;99.90;;;;;;5035119;28;20060;-78
2022/04/24 01:37:58;;;;;;;16.17;7.97;;;8.80;99.90;;;;;;5036052;28;20014;-78
2022/04/24 01:40:23;;;;;;;21.38;8.32;;;8.80;99.90;;;;;;5037327;28;20022;-78
2022/04/24 01:42:49;;;;;;;14.98;7.55;;;8.80;99.90;;;;;;5019413;28;20037;-77
2022/04/24 01:45:14;;;;;;;14.75;7.85;;;8.80;99.90;;;;;;5035224;28;20398;-77
2022/04/24 01:47:40;;;;;;;19.80;7.50;;;8.80;99.90;;;;;;5036945;28;20502;-79
2022/04/24 01:50:06;;;;;;;16.48;7.28;;;8.80;99.90;;;;;;5033752;28;20479;-76
2022/04/24 01:52:31;;;;;;;21.58;7.35;;;8.80;99.90;;;;;;5035078;28;20033;-77
2022/04/24 01:54:57;;;;;;;17.67;7.05;;;8.80;99.90;;;;;;5033725;28;20028;-76
2022/04/24 01:57:22;;;;;;;17.73;6.85;;;8.90;99.90;;;;;;5034400;28;20031;-79
2022/04/24 01:59:48;;;;;;;20.15;7.57;;;8.80;99.90;;;;;;5035347;28;20671;-78
2022/04/24 02:02:13;;;;;;;17.70;6.85;;;8.80;99.90;;;;;;5036051;28;20021;-77
2022/04/24 02:04:39;;;;;;;14.75;6.60;;;8.80;99.90;;;;;;5038227;28;20470;-75
2022/04/24 02:07:06;;;;;;;14.90;6.63;;;8.80;99.90;;;;;;5040546;28;20028;-77
2022/04/24 02:09:33;;;;;;;14.80;6.30;;;8.80;99.90;;;;;;5041742;28;20033;-76
2022/04/24 02:11:59;;;;;;;18.60;7.25;;;8.70;99.90;;;;;;5042366;28;20025;-77
2022/04/24 02:14:25;;;;;;;16.45;6.10;;;8.80;99.90;;;;;;5042361;28;20032;-77
2022/04/24 02:16:50;;;;;;;14.98;6.20;;;8.80;99.90;;;;;;5038908;28;20096;-78
2022/04/24 02:19:16;;;;;;;15.07;6.72;;;8.70;99.90;;;;;;5037270;28;20359;-78
2022/04/24 02:21:41;;;;;;;13.80;6.60;;;8.70;99.90;;;;;;5037590;28;20045;-77
2022/04/24 02:24:07;;;;;;;11.55;5.88;;;8.70;99.90;;;;;;5018704;28;20123;-77
2022/04/24 02:26:32;;;;;;;13.07;5.90;;;8.70;99.90;;;;;;5038786;28;20025;-78
2022/04/24 02:28:58;;;;;;;16.20;6.13;;;8.60;99.90;;;;;;5037057;28;20069;-78
2022/04/24 02:31:23;;;;;;;13.20;5.72;;;8.60;99.90;;;;;;5038318;28;20036;-79
2022/04/24 02:33:49;;;;;;;13.70;5.93;;;8.60;99.90;;;;;;5044061;28;20030;-82
2022/04/24 02:36:15;;;;;;;12.57;5.57;;;8.60;99.90;;;;;;5044293;28;20045;-78
2022/04/24 02:38:41;;;;;;;18.45;6.10;;;8.60;99.90;;;;;;5040201;28;20364;-79
2022/04/24 02:41:06;;;;;;;13.82;5.80;;;8.60;99.90;;;;;;5042083;28;20025;-77
2022/04/24 02:43:32;;;;;;;13.70;6.18;;;8.60;99.90;;;;;;5039858;28;20033;-81
2022/04/24 02:45:57;;;;;;;17.48;6.18;;;8.50;99.90;;;;;;5045721;28;20038;-79
2022/04/24 02:48:26;;;;;;;9.95;5.55;;;8.50;99.90;;;;;;5046638;28;20048;-79
2022/04/24 02:50:52;;;;;;;12.60;5.80;;;8.50;99.90;;;;;;5044532;28;20025;-79
2022/04/24 02:53:17;;;;;;;16.90;5.80;;;8.40;99.90;;;;;;5041033;28;20056;-78
2022/04/24 02:55:43;;;;;;;16.92;6.05;;;8.40;99.90;;;;;;5039232;28;20080;-78
2022/04/24 02:58:08;;;;;;;19.77;6.68;;;8.30;99.90;;;;;;5046632;28;20077;-78
2022/04/24 03:00:43;;;;;;;14.57;5.97;;;8.30;99.90;;;;;;5048666;28;20102;-77
2022/04/24 03:03:09;;;;;;;14.40;5.53;;;8.30;99.90;;;;;;5031952;28;20030;-76
2022/04/24 03:05:35;;;;;;;14.05;5.65;;;8.30;99.90;;;;;;5050381;28;20033;-78
2022/04/24 03:08:01;;;;;;;16.23;5.70;;;8.30;99.90;;;;;;5031283;28;20025;-77
2022/04/24 03:10:28;;;;;;;13.73;5.53;;;8.30;99.90;;;;;;5049660;28;20120;-76
2022/04/24 03:12:54;;;;;;;14.93;5.70;;;8.30;99.90;;;;;;5018545;28;20022;-77
2022/04/24 03:15:19;;;;;;;12.23;5.88;;;8.20;99.90;;;;;;5043459;28;20024;-75
2022/04/24 03:17:45;;;;;;;12.48;4.90;;;8.20;99.90;;;;;;5030461;28;20033;-77
2022/04/24 03:20:12;;;;;;;10.50;5.22;;;8.20;99.90;;;;;;5037425;28;20018;-78
2022/04/24 03:22:38;;;;;;;11.70;5.50;;;8.20;99.90;;;;;;5036328;28;20170;-77
2022/04/24 03:25:06;;;;;;;14.88;6.10;;;8.10;99.90;;;;;;5041795;28;20025;-77
2022/04/24 03:27:32;;;;;;;10.10;4.95;;;8.20;99.90;;;;;;5036583;28;20026;-77
2022/04/24 03:29:58;;;;;;;16.58;5.63;;;8.10;99.90;;;;;;5022790;28;20100;-77
2022/04/24 03:32:23;;;;;;;14.57;6.13;;;8.10;99.90;;;;;;5019731;28;20021;-78
2022/04/24 03:34:49;;;;;;;16.02;6.15;;;8.10;99.90;;;;;;5035969;28;20083;-77
2022/04/24 03:37:14;;;;;;;17.23;6.03;;;8.00;99.90;;;;;;5034850;28;20026;-77
2022/04/24 03:39:40;;;;;;;18.85;6.63;;;8.00;99.90;;;;;;5035726;28;20022;-77
2022/04/24 03:42:06;;;;;;;20.50;7.07;;;7.90;99.90;;;;;;5034849;28;20438;-78
2022/04/24 03:44:33;;;;;;;19.98;6.68;;;7.90;99.90;;;;;;5035954;28;20104;-77
2022/04/24 03:46:58;;;;;;;18.55;6.93;;;7.80;99.90;;;;;;5034859;28;20100;-77
2022/04/24 03:49:25;;;;;;;16.20;6.65;;;7.80;99.90;;;;;;5034872;28;20125;-76
2022/04/24 03:51:51;;;;;;;16.27;6.72;;;7.80;99.90;;;;;;5034751;28;20565;-75
2022/04/24 03:54:17;;;;;;;18.88;7.50;;;7.80;99.90;;;;;;5035183;28;20049;-76
2022/04/24 03:56:42;;;;;;;28.65;8.00;;;7.80;99.90;;;;;;5034730;28;20079;-77
2022/04/24 03:59:08;;;;;;;20.52;8.02;;;7.80;99.90;;;;;;5034938;28;20498;-76
2022/04/24 04:01:34;;;;;;;17.23;6.90;;;7.80;99.90;;;;;;5016969;28;20333;-75
2022/04/24 04:03:59;;;;;;;20.08;7.85;;;7.80;99.90;;;;;;5036648;28;20033;-79
2022/04/24 04:06:25;;;;;;;25.48;8.48;;;7.70;99.90;;;;;;5044872;28;20456;-78
2022/04/24 04:08:50;;;;;;;20.77;8.27;;;7.70;99.90;;;;;;5043757;28;20078;-78
2022/04/24 04:11:16;;;;;;;26.70;8.55;;;7.70;99.90;;;;;;5022706;28;20029;-77
2022/04/24 04:13:41;;;;;;;24.52;8.95;;;7.70;99.90;;;;;;5036153;28;20044;-78
2022/04/24 04:16:07;;;;;;;24.52;9.05;;;7.70;99.90;;;;;;5034402;28;20033;-78
2022/04/24 04:18:33;;;;;;;22.00;9.38;;;7.80;99.90;;;;;;5036016;28;20096;-78
2022/04/24 04:20:59;;;;;;;22.33;10.00;;;7.80;99.90;;;;;;5037082;28;20509;-78
2022/04/24 04:23:24;;;;;;;25.48;10.02;;;7.80;99.90;;;;;;5018730;28;20033;-77
2022/04/24 04:25:50;;;;;;;25.00;10.55;;;7.80;99.90;;;;;;5035940;28;20100;-77
2022/04/24 04:28:15;;;;;;;26.27;10.07;;;7.70;99.90;;;;;;5035366;28;20025;-77
2022/04/24 04:30:41;;;;;;;34.47;10.18;;;7.80;99.90;;;;;;5018051;28;20480;-77
2022/04/24 04:33:09;;;;;;;24.30;11.00;;;7.80;99.90;;;;;;5018922;28;20083;-77
2022/04/24 04:35:35;;;;;;;28.10;10.25;;;7.70;99.90;;;;;;5037110;28;20025;-79
2022/04/24 04:38:01;;;;;;;30.80;11.32;;;7.70;99.90;;;;;;5037104;28;20018;-78
2022/04/24 04:40:26;;;;;;;35.90;11.40;;;7.80;99.90;;;;;;5036901;28;20091;-78
2022/04/24 04:42:52;;;;;;;28.50;11.23;;;7.80;99.90;;;;;;5039839;28;20155;-77
2022/04/24 04:45:17;;;;;;;26.73;11.15;;;7.80;99.90;;;;;;5044378;28;20131;-77
2022/04/24 04:47:44;;;;;;;25.05;10.15;;;7.90;99.90;;;;;;5026824;28;20035;-78
2022/04/24 04:50:10;;;;;;;42.88;12.13;;;7.90;99.90;;;;;;5044127;28;20113;-77
2022/04/24 04:52:36;;;;;;;25.40;10.68;;;7.90;99.90;;;;;;5041758;28;20394;-77
2022/04/24 04:55:03;;;;;;;23.90;10.05;;;8.00;99.90;;;;;;5021783;28;20109;-78
2022/04/24 04:57:29;;;;;;;25.90;11.07;;;8.10;99.90;;;;;;5035002;28;20036;-79
2022/04/24 04:59:55;;;;;;;22.40;9.88;;;8.10;99.90;;;;;;5038348;28;20025;-78
2022/04/24 05:02:20;;;;;;;27.95;10.48;;;8.10;99.90;;;;;;5037778;28;20026;-78
2022/04/24 05:04:46;;;;;;;29.63;10.73;;;8.10;99.90;;;;;;5038308;28;20180;-78
2022/04/24 05:07:14;;;;;;;31.02;10.68;;;8.10;99.90;;;;;;5036601;28;20026;-78
2022/04/24 05:09:40;;;;;;;24.95;9.20;;;8.10;99.90;;;;;;5039507;28;20089;-78
2022/04/24 05:12:07;;;;;;;27.30;10.52;;;8.10;99.90;;;;;;5035984;28;20471;-77
2022/04/24 05:14:32;;;;;;;30.05;9.82;;;8.20;99.90;;;;;;5033314;28;20032;-77
2022/04/24 05:16:59;;;;;;;27.33;10.52;;;8.20;99.90;;;;;;5036280;28;20049;-77
2022/04/24 05:19:25;;;;;;;28.95;10.63;;;8.20;99.90;;;;;;5036039;28;20398;-78
2022/04/24 05:21:51;;;;;;;27.52;10.10;;;8.30;99.90;;;;;;5018011;28;20542;-77
2022/04/24 05:24:17;;;;;;;25.35;9.48;;;8.40;99.90;;;;;;5016977;28;20041;-78
2022/04/24 05:26:42;;;;;;;21.60;9.68;;;8.40;99.90;;;;;;5036359;28;20040;-76
2022/04/24 05:29:08;;;;;;;25.50;9.85;;;8.50;99.90;;;;;;5016722;28;20025;-78
2022/04/24 05:31:34;;;;;;;19.10;9.30;;;8.50;99.90;;;;;;5036066;28;20601;-78
2022/04/24 05:34:00;;;;;;;24.42;9.63;;;8.50;99.90;;;;;;5044655;28;20033;-77
2022/04/24 05:36:25;;;;;;;25.42;9.02;;;8.50;99.90;;;;;;5051427;28;20037;-76
2022/04/24 05:38:51;;;;;;;21.45;9.18;;;8.60;99.90;;;;;;5047906;28;20033;-77
2022/04/24 05:41:16;;;;;;;24.63;9.43;;;8.70;99.90;;;;;;5030914;28;20470;-76
2022/04/24 05:43:42;;;;;;;22.73;8.20;;;8.70;99.90;;;;;;5049553;28;20037;-76
2022/04/24 05:46:07;;;;;;;26.42;9.55;;;8.70;99.90;;;;;;5048201;28;20029;-77
2022/04/24 05:48:33;;;;;;;19.40;8.00;;;8.70;99.90;;;;;;5048978;28;20105;-77
2022/04/24 05:50:59;;;;;;;24.73;8.43;;;8.80;99.90;;;;;;5022320;28;20044;-77
2022/04/24 05:53:25;;;;;;;16.73;7.88;;;8.90;99.90;;;;;;5037391;28;20029;-77
2022/04/24 05:55:50;;;;;;;19.10;7.50;;;8.90;99.90;;;;;;5033813;28;20022;-77
2022/04/24 05:58:16;;;;;;;18.98;8.00;;;9.00;99.90;;;;;;5033809;28;20052;-78
2022/04/24 06:00:42;;;;;;;19.65;7.28;;;9.00;99.90;;;;;;5033343;28;20030;-77
2022/04/24 06:03:07;;;;;;;16.25;7.55;;;9.10;99.90;;;;;;5035045;28;20051;-77
2022/04/24 06:05:33;;;;;;;16.35;7.07;;;9.20;99.90;;;;;;5036856;28;20029;-78
2022/04/24 06:07:58;;;;;;;14.57;6.78;;;9.20;99.90;;;;;;5035462;28;20033;-79
2022/04/24 06:10:24;;;;;;;15.35;6.60;;;9.30;99.90;;;;;;5035303;28;20121;-78
2022/04/24 06:12:53;;;;;;;15.07;6.25;;;9.40;99.90;;;;;;5016545;28;20100;-77
2022/04/24 06:15:22;;;;;;;12.02;6.15;;;9.40;99.90;;;;;;5034324;28;20064;-79
2022/04/24 06:17:50;;;;;;;17.25;6.25;;;9.40;99.90;;;;;;5036541;28;20025;-77
2022/04/24 06:20:16;;;;;;;18.02;6.55;;;9.50;99.90;;;;;;5036114;28;20422;-77
2022/04/24 06:22:51;;;;;;;19.55;6.97;;;9.50;99.90;;;;;;5043804;28;20038;-79
2022/04/24 06:25:20;;;;;;;16.67;6.50;;;9.60;99.90;;;;;;5040642;28;20033;-78
2022/04/24 06:27:47;;;;;;;12.45;6.00;;;9.70;99.90;;;;;;5041215;28;20025;-79
2022/04/24 06:30:14;;;;;;;17.50;6.10;;;9.70;99.90;;;;;;5025862;28;20112;-79
2022/04/24 06:32:42;;;;;;;13.63;5.55;;;9.80;99.90;;;;;;5040552;28;20025;-79
2022/04/24 06:35:09;;;;;;;13.65;5.63;;;9.90;99.90;;;;;;5043021;28;20018;-77
2022/04/24 06:37:39;;;;;;;11.90;5.93;;;9.90;99.90;;;;;;5040522;28;20021;-78
2022/04/24 06:40:06;;;;;;;13.40;6.57;;;10.00;99.90;;;;;;5040430;28;20025;-79
2022/04/24 06:42:33;;;;;;;14.55;5.57;;;10.10;99.90;;;;;;5022747;28;20041;-76
2022/04/24 06:44:59;;;;;;;11.88;5.70;;;10.20;99.90;;;;;;5032215;28;20101;-77
2022/04/24 06:47:24;;;;;;;13.73;5.90;;;10.20;99.90;;;;;;5032171;28;20064;-77
2022/04/24 06:49:50;;;;;;;20.10;6.03;;;10.30;99.90;;;;;;5033724;28;20463;-76
2022/04/24 06:52:15;;;;;;;11.63;5.63;;;10.30;99.90;;;;;;5034381;28;20029;-76
2022/04/24 06:54:41;;;;;;;11.90;5.30;;;10.40;99.90;;;;;;5032236;28;20033;-76
2022/04/24 06:57:06;;;;;;;15.93;5.25;;;10.50;99.90;;;;;;5032949;28;20021;-76
2022/04/24 06:59:32;;;;;;;15.43;5.72;;;10.50;99.90;;;;;;5032515;28;20025;-77
2022/04/24 07:01:57;;;;;;;10.55;5.47;;;10.50;99.90;;;;;;5034449;28;20162;-77
2022/04/24 07:04:22;;;;;;;18.23;5.15;;;10.60;99.90;;;;;;5034033;28;20026;-76
2022/04/24 07:06:48;;;;;;;15.50;6.22;;;10.60;99.90;;;;;;5031650;28;20168;-75
2022/04/24 07:09:13;;;;;;;14.10;5.47;;;10.70;99.90;;;;;;5013986;28;20100;-76
2022/04/24 07:11:40;;;;;;;15.05;5.30;;;10.80;99.90;;;;;;5032067;28;20033;-76
2022/04/24 07:14:06;;;;;;;11.25;5.13;;;10.90;99.90;;;;;;5015094;28;20030;-76
2022/04/24 07:16:33;;;;;;;14.18;5.28;;;11.00;99.90;;;;;;5036431;28;20025;-75
2022/04/24 07:18:59;;;;;;;10.35;5.22;;;11.10;99.90;;;;;;5045097;28;20101;-77
2022/04/24 07:21:25;;;;;;;11.00;5.07;;;11.20;99.90;;;;;;5045598;28;20402;-76
2022/04/24 07:23:51;;;;;;;12.98;5.05;;;11.30;99.90;;;;;;5045315;28;20288;-76
2022/04/24 07:26:16;;;;;;;14.80;4.80;;;11.30;99.90;;;;;;5046236;28;20038;-76
2022/04/24 07:28:42;;;;;;;10.23;5.10;;;11.40;99.90;;;;;;5048370;28;20098;-77
2022/04/24 07:31:07;;;;;;;15.95;5.60;;;11.40;99.90;;;;;;5037295;28;20156;-76
2022/04/24 07:33:34;;;;;;;16.92;4.60;;;11.40;99.90;;;;;;5036108;28;20026;-75
2022/04/24 07:36:00;;;;;;;15.43;4.97;;;11.50;99.90;;;;;;5035249;28;20181;-76
2022/04/24 07:38:25;;;;;;;10.77;4.20;;;11.50;99.90;;;;;;5036544;28;20025;-75
2022/04/24 07:40:51;;;;;;;9.70;4.60;;;11.50;99.90;;;;;;5038156;28;20413;-74
2022/04/24 07:43:17;;;;;;;14.52;4.82;;;11.60;99.90;;;;;;5036710;28;20025;-76
2022/04/24 07:45:47;;;;;;;11.95;5.18;;;11.70;99.90;;;;;;5035798;28;20461;-75
2022/04/24 07:48:14;;;;;;;12.65;4.57;;;11.80;99.90;;;;;;5035543;28;20428;-75
2022/04/24 07:50:45;;;;;;;8.98;4.35;;;11.90;99.90;;;;;;5035604;28;20039;-75
2022/04/24 07:53:12;;;;;;;8.30;4.28;;;12.00;99.90;;;;;;5037758;28;20490;-75
2022/04/24 07:55:40;;;;;;;8.35;4.35;;;12.00;99.90;;;;;;5038616;28;20104;-75
2022/04/24 07:58:06;;;;;;;11.30;4.30;;;12.00;99.90;;;;;;5041823;28;20092;-75
2022/04/24 08:00:33;;;;;;;8.15;4.00;;;12.00;99.90;;;;;;5040737;28;20053;-76
2022/04/24 08:03:04;;;;;;;11.65;4.28;;;12.00;99.90;;;;;;5017524;28;20087;-75
2022/04/24 08:05:31;;;;;;;9.45;4.57;;;12.20;99.90;;;;;;5034976;28;20110;-76
2022/04/24 08:07:59;;;;;;;13.55;4.60;;;12.10;99.90;;;;;;5034749;28;20399;-74
2022/04/24 08:10:26;;;;;;;12.77;4.15;;;12.20;99.90;;;;;;5035242;28;20375;-75
2022/04/24 08:12:52;;;;;;;9.85;4.00;;;12.30;99.90;;;;;;5035043;28;20541;-76
2022/04/24 08:15:18;;;;;;;10.00;4.00;;;12.30;99.90;;;;;;5034989;28;20025;-75
2022/04/24 08:17:44;;;;;;;6.57;3.40;;;12.30;99.90;;;;;;5036257;28;20076;-75
2022/04/24 08:20:13;;;;;;;17.67;3.92;;;12.30;99.90;;;;;;5034637;28;20403;-75
2022/04/24 08:22:46;;;;;;;13.80;3.90;;;12.40;99.90;;;;;;5035147;28;20105;-74
2022/04/24 08:25:18;;;;;;;9.50;4.18;;;12.60;99.90;;;;;;5017329;28;20550;-77
2022/04/24 08:27:44;;;;;;;15.95;5.13;;;12.50;99.90;;;;;;5034750;28;20025;-73
2022/04/24 08:30:11;;;;;;;16.65;3.72;;;12.50;99.90;;;;;;5016442;28;20030;-74
2022/04/24 08:32:38;;;;;;;7.28;3.60;;;12.60;99.90;;;;;;5034724;28;20030;-74
2022/04/24 08:35:05;;;;;;;12.25;3.80;;;12.60;99.90;;;;;;5035087;28;20017;-75
2022/04/24 08:37:31;;;;;;;14.63;3.83;;;12.60;99.90;;;;;;5034779;28;20013;-75
2022/04/24 08:39:57;;;;;;;11.27;4.20;;;12.60;99.90;;;;;;5034542;28;20096;-75
2022/04/24 08:42:23;;;;;;;11.18;4.70;;;12.60;99.90;;;;;;5034346;28;20018;-74
2022/04/24 08:44:49;;;;;;;12.57;4.45;;;12.70;99.90;;;;;;5016430;28;20119;-74
2022/04/24 08:47:16;;;;;;;13.82;4.55;;;12.80;99.90;;;;;;5034065;28;20018;-74
2022/04/24 08:49:43;;;;;;;9.93;3.75;;;12.90;99.90;;;;;;5034512;28;20029;-75
2022/04/24 08:52:14;;;;;;;11.25;3.80;;;12.90;99.90;;;;;;5034160;28;20475;-74
2022/04/24 08:54:41;;;;;;;9.55;4.28;;;13.00;99.90;;;;;;5034386;28;20502;-76
2022/04/24 08:57:11;;;;;;;8.50;4.03;;;13.00;99.90;;;;;;5033905;28;20022;-75
2022/04/24 08:59:38;;;;;;;13.85;4.30;;;13.00;99.90;;;;;;5016362;28;20025;-74
2022/04/24 09:02:05;;;;;;;13.00;4.68;;;13.20;99.90;;;;;;5034448;28;20398;-75
2022/04/24 09:04:34;;;;;;;12.18;4.35;;;13.30;99.90;;;;;;5016167;28;20036;-75
2022/04/24 09:07:02;;;;;;;7.07;3.72;;;13.50;99.90;;;;;;5034720;28;20063;-74
2022/04/24 09:09:31;;;;;;;9.95;3.72;;;13.50;99.90;;;;;;5035417;28;20029;-74
2022/04/24 09:12:07;;;;;;;12.98;4.22;;;13.40;99.90;;;;;;5036396;28;20069;-73
2022/04/24 09:14:33;;;;;;;11.35;4.25;;;13.40;99.90;;;;;;5036467;28;20022;-74
2022/04/24 09:17:01;;;;;;;14.07;4.55;;;13.40;99.90;;;;;;5018039;28;20332;-75
2022/04/24 09:19:27;;;;;;;12.73;3.80;;;13.40;99.90;;;;;;5033562;28;20017;-74
2022/04/24 09:22:00;;;;;;;7.68;3.72;;;13.40;99.90;;;;;;5033832;28;20032;-75
2022/04/24 09:24:39;;;;;;;16.75;4.13;;;13.50;99.90;;;;;;5033510;28;20029;-76
2022/04/24 09:27:05;;;;;;;10.95;4.75;;;13.50;99.90;;;;;;5033853;28;20026;-74
2022/04/24 09:29:30;;;;;;;11.27;4.03;;;13.60;99.90;;;;;;5033861;28;20494;-75
2022/04/24 09:31:56;;;;;;;10.23;3.92;;;13.80;99.90;;;;;;5033909;28;20044;-75
2022/04/24 09:34:27;;;;;;;10.77;4.20;;;13.80;99.90;;;;;;5033924;28;20066;-74
2022/04/24 09:37:04;;;;;;;14.50;4.53;;;13.80;99.90;;;;;;5033845;28;20028;-75
2022/04/24 09:39:32;;;;;;;13.15;4.45;;;14.00;99.90;;;;;;5033118;28;20028;-76
2022/04/24 09:42:03;;;;;;;13.48;3.83;;;14.10;99.90;;;;;;5034405;28;20115;-75
2022/04/24 09:44:45;;;;;;;12.18;4.40;;;14.10;99.90;;;;;;5035653;28;20521;-75
2022/04/24 09:47:12;;;;;;;9.90;3.40;;;14.10;99.90;;;;;;5037523;28;20040;-74
2022/04/24 09:49:40;;;;;;;10.32;3.70;;;14.30;99.90;;;;;;5036426;28;20037;-77
2022/04/24 09:52:36;;;;;;;14.45;4.30;;;14.20;99.90;;;;;;5037411;28;20017;-76
2022/04/24 09:55:02;;;;;;;9.27;4.00;;;14.30;99.90;;;;;;5042741;28;20030;-75
2022/04/24 09:57:29;;;;;;;13.43;4.25;;;14.40;99.90;;;;;;5041686;28;20443;-76
2022/04/24 09:59:55;;;;;;;15.15;3.88;;;14.40;99.90;;;;;;5039711;28;20638;-75
2022/04/24 10:02:20;;;;;;;10.40;4.57;;;14.40;99.90;;;;;;5041190;28;20068;-75
2022/04/24 10:04:47;;;;;;;9.02;3.47;;;14.40;99.90;;;;;;5036089;28;20116;-75
2022/04/24 10:07:19;;;;;;;8.57;3.67;;;14.50;99.90;;;;;;5035066;28;20028;-75
2022/04/24 10:09:46;;;;;;;10.65;3.40;;;14.50;99.90;;;;;;5033921;28;20026;-76
2022/04/24 10:12:18;;;;;;;14.43;5.07;;;14.70;99.90;;;;;;5033844;28;20055;-74
2022/04/24 10:14:57;;;;;;;10.90;4.72;;;14.70;99.90;;;;;;5033863;28;20049;-76
2022/04/24 10:17:56;;;;;;;12.98;4.85;;;14.70;99.90;;;;;;5038992;28;20073;-76
2022/04/24 10:20:56;;;;;;;21.92;6.97;;;14.60;99.90;;;;;;5039222;28;20037;-75
2022/04/24 10:23:31;;;;;;;20.02;7.57;;;14.40;99.90;;;;;;5033271;28;20440;-76
2022/04/24 10:25:57;;;;;;;18.33;7.20;;;14.40;99.90;;;;;;5035933;28;20029;-76
2022/04/24 10:28:27;;;;;;;18.88;7.78;;;14.30;99.90;;;;;;5016898;28;20036;-75
2022/04/24 10:31:03;;;;;;;12.75;5.15;;;14.30;99.90;;;;;;5017901;28;20032;-74
2022/04/24 10:33:32;;;;;;;20.52;7.47;;;14.20;99.90;;;;;;5033594;28;20025;-75
2022/04/24 10:36:07;;;;;;;30.95;13.00;;;14.30;99.90;;;;;;5033524;28;20014;-75
2022/04/24 10:38:44;;;;;;;15.93;5.15;;;14.40;99.90;;;;;;5033594;28;20021;-75
2022/04/24 10:41:22;;;;;;;9.13;4.28;;;14.60;99.90;;;;;;5033479;28;20032;-75
2022/04/24 10:43:49;;;;;;;7.40;3.75;;;14.80;99.90;;;;;;5033736;28;20171;-75
2022/04/24 10:46:16;;;;;;;10.48;4.00;;;15.00;99.90;;;;;;5033172;28;20076;-76
2022/04/24 10:48:42;;;;;;;13.50;3.63;;;15.10;99.90;;;;;;5015957;28;20113;-75
2022/04/24 10:51:07;;;;;;;11.70;3.90;;;15.30;99.90;;;;;;5037002;28;20108;-76
2022/04/24 10:53:50;;;;;;;9.15;4.40;;;15.30;99.90;;;;;;5023632;28;20390;-75
2022/04/24 10:56:16;;;;;;;20.30;7.15;;;15.40;99.90;;;;;;5039256;28;20022;-77
2022/04/24 10:58:41;;;;;;;15.82;5.20;;;15.40;99.90;;;;;;5037340;28;20320;-77
2022/04/24 11:01:14;;;;;;;38.90;16.25;;;15.40;99.90;;;;;;5036829;28;20025;-76
2022/04/24 11:03:45;;;;;;;29.45;12.35;;;15.10;99.90;;;;;;5036309;28;20030;-75
2022/04/24 11:06:17;;;;;;;13.85;5.32;;;15.10;99.90;;;;;;5037590;28;20461;-76
2022/04/24 11:08:43;;;;;;;13.88;4.70;;;15.10;99.90;;;;;;5037540;28;20060;-77
2022/04/24 11:11:13;;;;;;;12.57;4.80;;;15.10;99.90;;;;;;5036690;28;20053;-74
2022/04/24 11:13:38;;;;;;;16.75;3.80;;;15.20;99.90;;;;;;5036471;28;20052;-76
2022/04/24 11:16:06;;;;;;;13.23;3.95;;;15.20;99.90;;;;;;5035833;28;20045;-74
2022/04/24 11:18:32;;;;;;;13.18;4.22;;;15.20;99.90;;;;;;5036473;28;20025;-77
2022/04/24 11:21:03;;;;;;;11.68;4.45;;;15.30;99.90;;;;;;5018839;28;20032;-76
2022/04/24 11:23:35;;;;;;;16.95;4.55;;;15.60;99.90;;;;;;5036040;28;20087;-76
2022/04/24 11:26:02;;;;;;;21.60;8.50;;;15.70;99.90;;;;;;5036657;28;20026;-75
2022/04/24 11:28:35;;;;;;;13.65;5.13;;;15.90;99.90;;;;;;5036016;28;20977;-76
2022/04/24 11:31:21;;;;;;;16.98;4.70;;;16.20;99.90;;;;;;5017987;28;20022;-76
2022/04/24 11:34:01;;;;;;;9.63;4.05;;;16.40;99.90;;;;;;5036085;28;20029;-77
2022/04/24 11:36:32;;;;;;;22.92;5.88;;;16.30;99.90;;;;;;5036404;28;20428;-77
2022/04/24 11:39:01;;;;;;;19.35;7.13;;;16.00;99.90;;;;;;5038354;28;20083;-76
2022/04/24 11:41:29;;;;;;;14.05;5.40;;;15.90;99.90;;;;;;5038883;28;20029;-75
2022/04/24 11:44:02;;;;;;;16.95;5.10;;;15.90;99.90;;;;;;5041588;28;20022;-74
2022/04/24 11:51:59;;;;;;;17.95;5.57;;;15.50;99.90;;;;;;5036123;28;20116;-75
2022/04/24 11:54:25;;;;;;;10.98;4.95;;;15.40;99.90;;;;;;5038031;28;20049;-76
2022/04/24 11:56:51;;;;;;;17.27;5.60;;;15.40;99.90;;;;;;5038201;28;20037;-76
2022/04/24 11:59:21;;;;;;;14.95;5.47;;;15.40;99.90;;;;;;5038746;28;20044;-77
2022/04/24 12:02:12;;;;;;;13.75;4.93;;;15.60;99.90;;;;;;5022810;28;20429;-76
2022/04/24 12:04:40;;;;;;;14.00;4.60;;;15.80;99.90;;;;;;5038359;28;20038;-76
2022/04/24 12:07:07;;;;;;;8.75;4.15;;;15.80;99.90;;;;;;5035879;28;20022;-75
2022/04/24 12:09:35;;;;;;;22.17;5.45;;;15.80;99.90;;;;;;5036073;28;20029;-75
2022/04/24 12:12:07;;;;;;;11.52;4.65;;;15.80;99.90;;;;;;5035865;28;20017;-74
2022/04/24 12:14:34;;;;;;;16.67;5.18;;;16.10;99.90;;;;;;5034460;28;20017;-74
2022/04/24 12:17:04;;;;;;;12.90;4.90;;;16.30;99.90;;;;;;5031047;28;20553;-75
2022/04/24 12:19:30;;;;;;;11.30;4.80;;;16.70;99.90;;;;;;5035110;28;20059;-74
2022/04/24 12:21:56;;;;;;;12.80;4.38;;;17.10;99.90;;;;;;5035727;28;20034;-75
2022/04/24 12:24:21;;;;;;;16.35;4.50;;;17.50;99.90;;;;;;5037666;28;20471;-75
2022/04/24 12:26:51;;;;;;;10.60;4.55;;;18.00;99.90;;;;;;5045196;28;20033;-75
2022/04/24 12:29:17;;;;;;;12.95;4.95;;;17.50;99.90;;;;;;5044969;28;20116;-75
2022/04/24 12:31:47;;;;;;;10.70;4.80;;;17.10;99.90;;;;;;5046526;28;20044;-75
2022/04/24 12:34:14;;;;;;;12.88;4.32;;;16.70;99.90;;;;;;5043005;28;20083;-75
2022/04/24 12:36:54;;;;;;;14.07;4.90;;;16.60;99.90;;;;;;5036591;28;20495;-74
2022/04/24 12:39:24;;;;;;;17.73;4.97;;;16.50;99.90;;;;;;5035397;28;20033;-73
2022/04/24 12:41:50;;;;;;;16.35;4.90;;;16.50;99.90;;;;;;5035877;28;20036;-75
2022/04/24 12:44:15;;;;;;;24.35;9.02;;;16.30;99.90;;;;;;5039037;28;20017;-75
2022/04/24 12:46:41;;;;;;;32.60;13.57;;;16.10;99.90;;;;;;5035127;28;20029;-76
2022/04/24 12:49:07;;;;;;;30.33;12.45;;;15.70;99.90;;;;;;5036134;28;20021;-75